createdAt,value
2022-12-04T00:01:28.361Z,0.90
2022-12-04T00:03:57.733Z,0.90
2022-12-04T00:06:26.519Z,0.90
2022-12-04T00:08:55.232Z,0.90
2022-12-04T00:11:25.925Z,0.90
2022-12-04T00:13:58.200Z,1.10
2022-12-04T00:16:30.737Z,0.90
2022-12-04T00:18:59.926Z,0.90
2022-12-04T00:21:28.253Z,0.90
2022-12-04T00:23:56.382Z,0.90
2022-12-04T00:26:26.945Z,0.90
2022-12-04T00:28:57.140Z,0.90
2022-12-04T00:31:28.135Z,1.10
2022-12-04T00:33:56.598Z,0.90
2022-12-04T00:36:27.931Z,0.90
2022-12-04T00:38:56.861Z,1.40
2022-12-04T00:41:26.783Z,0.90
2022-12-04T00:43:56.830Z,1.20
2022-12-04T00:46:25.181Z,1.10
2022-12-04T00:48:54.317Z,1.00
2022-12-04T00:51:24.723Z,1.60
2022-12-04T00:53:55.926Z,1.00
2022-12-04T00:56:27.022Z,1.00
2022-12-04T00:58:58.126Z,1.10
2022-12-04T01:01:27.340Z,1.00
2022-12-04T01:03:56.430Z,2.30
2022-12-04T01:06:26.573Z,1.00
2022-12-04T01:08:56.434Z,1.00
2022-12-04T01:11:26.133Z,1.00
2022-12-04T01:13:54.544Z,1.90
2022-12-04T01:16:26.113Z,1.00
2022-12-04T01:18:54.395Z,1.00
2022-12-04T01:21:22.704Z,1.70
2022-12-04T01:23:50.858Z,1.10
2022-12-04T01:26:19.094Z,1.30
2022-12-04T01:28:47.173Z,1.10
2022-12-04T01:31:18.450Z,1.10
2022-12-04T01:33:48.761Z,1.10
2022-12-04T01:36:19.312Z,1.30
2022-12-04T01:38:47.543Z,2.00
2022-12-04T01:41:18.745Z,1.10
2022-12-04T01:43:46.907Z,1.10
2022-12-04T01:46:15.095Z,1.10
2022-12-04T01:48:47.193Z,1.10
2022-12-04T01:51:19.822Z,1.10
2022-12-04T01:53:52.169Z,1.10
2022-12-04T01:56:23.030Z,1.10
2022-12-04T01:58:56.497Z,1.10
2022-12-04T02:01:26.204Z,1.10
2022-12-04T02:03:55.067Z,1.10
2022-12-04T02:06:24.732Z,1.00
2022-12-04T02:08:53.125Z,1.00
2022-12-04T02:11:29.731Z,1.10
2022-12-04T02:14:09.012Z,1.00
2022-12-04T02:16:43.552Z,1.00
2022-12-04T02:19:34.225Z,1.00
2022-12-04T02:22:11.833Z,0.90
2022-12-04T02:24:51.810Z,0.90
2022-12-04T02:27:36.284Z,0.90
2022-12-04T02:30:09.078Z,0.90
2022-12-04T02:32:42.503Z,0.80
2022-12-04T02:35:16.314Z,0.90
2022-12-04T02:37:47.732Z,0.80
2022-12-04T02:40:22.536Z,0.90
2022-12-04T02:42:58.911Z,1.10
2022-12-04T02:45:31.613Z,0.80
2022-12-04T02:48:01.960Z,0.80
2022-12-04T02:50:31.828Z,0.80
2022-12-04T02:53:06.639Z,0.70
2022-12-04T02:55:38.938Z,0.70
2022-12-04T02:58:13.156Z,0.70
2022-12-04T03:00:44.895Z,0.70
2022-12-04T03:03:19.463Z,0.70
2022-12-04T03:05:55.420Z,0.70
2022-12-04T03:08:27.498Z,0.70
2022-12-04T03:11:00.393Z,0.70
2022-12-04T03:13:34.207Z,0.70
2022-12-04T03:16:08.967Z,0.70
2022-12-04T03:18:42.652Z,0.70
2022-12-04T03:21:14.371Z,0.70
2022-12-04T03:23:48.965Z,0.70
2022-12-04T03:26:25.149Z,0.70
2022-12-04T03:28:58.068Z,0.70
2022-12-04T03:31:36.757Z,0.70
2022-12-04T03:34:07.246Z,0.70
2022-12-04T03:36:38.843Z,0.80
2022-12-04T03:39:15.770Z,0.80
2022-12-04T03:41:56.099Z,0.80
2022-12-04T03:44:28.556Z,1.90
2022-12-04T03:47:02.995Z,0.60
2022-12-04T03:49:39.446Z,0.60
2022-12-04T03:52:14.364Z,0.60
2022-12-04T03:54:48.051Z,0.50
2022-12-04T03:57:19.462Z,0.60
2022-12-04T03:59:55.621Z,1.20
2022-12-04T04:02:29.970Z,0.60
2022-12-04T04:05:01.340Z,1.80
2022-12-04T04:07:36.003Z,0.60
2022-12-04T04:10:09.785Z,0.60
2022-12-04T04:12:42.035Z,0.50
2022-12-04T04:15:30.324Z,0.60
2022-12-04T04:18:19.861Z,0.50
2022-12-04T04:21:08.747Z,1.00
2022-12-04T04:23:59.201Z,1.60
2022-12-04T04:26:29.225Z,0.50
2022-12-04T04:28:57.402Z,0.60
2022-12-04T04:31:33.612Z,1.80
2022-12-04T04:34:12.371Z,0.50
2022-12-04T04:36:47.659Z,1.70
2022-12-04T04:39:23.085Z,0.50
2022-12-04T04:41:57.120Z,0.50
2022-12-04T04:44:30.840Z,0.40
2022-12-04T04:47:04.899Z,0.40
2022-12-04T04:49:36.115Z,0.90
2022-12-04T04:52:04.626Z,0.40
2022-12-04T04:54:35.068Z,0.40
2022-12-04T04:57:03.192Z,0.50
2022-12-04T04:59:31.606Z,0.90
2022-12-04T05:01:59.887Z,1.40
2022-12-04T05:04:28.243Z,1.50
2022-12-04T05:06:57.817Z,0.40
2022-12-04T05:09:26.852Z,0.50
2022-12-04T05:11:54.962Z,0.50
2022-12-04T05:14:23.146Z,1.60
2022-12-04T05:16:51.284Z,1.50
2022-12-04T05:19:36.702Z,0.40
2022-12-04T05:22:06.386Z,1.50
2022-12-04T05:24:34.589Z,0.50
2022-12-04T05:27:02.900Z,1.50
2022-12-04T05:29:35.751Z,1.10
2022-12-04T05:32:04.657Z,0.50
2022-12-04T05:34:32.963Z,0.50
2022-12-04T05:37:01.041Z,0.50
2022-12-04T05:39:30.600Z,1.90
2022-12-04T05:41:58.725Z,0.70
2022-12-04T05:44:26.983Z,0.70
2022-12-04T05:46:55.143Z,0.90
2022-12-04T05:49:23.363Z,0.60
2022-12-04T05:51:52.362Z,1.30
2022-12-04T05:54:20.746Z,0.70
2022-12-04T05:56:50.525Z,1.50
2022-12-04T05:59:19.563Z,0.50
2022-12-04T06:01:48.071Z,1.40
2022-12-04T06:04:16.336Z,1.10
2022-12-04T06:06:44.636Z,0.50
2022-12-04T06:09:13.075Z,1.30
2022-12-04T06:11:43.149Z,0.50
2022-12-04T06:14:15.459Z,0.50
2022-12-04T06:16:45.502Z,0.50
2022-12-04T06:19:16.464Z,0.50
2022-12-04T06:21:47.252Z,0.60
2022-12-04T06:24:17.726Z,1.50
2022-12-04T06:27:11.276Z,1.40
2022-12-04T06:29:35.773Z,0.60
2022-12-04T06:32:04.315Z,1.20
2022-12-04T06:34:32.955Z,1.00
2022-12-04T06:37:01.121Z,0.60
2022-12-04T06:39:29.240Z,0.60
2022-12-04T06:41:57.373Z,1.00
2022-12-04T06:44:25.630Z,0.70
2022-12-04T06:46:55.465Z,0.70
2022-12-04T06:49:25.470Z,1.10
2022-12-04T06:51:53.807Z,1.70
2022-12-04T06:54:21.938Z,0.70
2022-12-04T06:56:51.053Z,1.00
2022-12-04T06:59:19.205Z,0.80
2022-12-04T07:01:47.333Z,0.80
2022-12-04T07:04:16.932Z,0.80
2022-12-04T07:06:45.168Z,1.40
2022-12-04T07:09:16.222Z,1.10
2022-12-04T07:11:45.299Z,0.90
2022-12-04T07:14:14.825Z,2.10
2022-12-04T07:16:43.865Z,2.90
2022-12-04T07:19:13.968Z,0.90
2022-12-04T07:21:44.967Z,1.90
2022-12-04T07:24:16.971Z,0.90
2022-12-04T07:26:45.541Z,1.60
2022-12-04T07:29:13.912Z,1.50
2022-12-04T07:31:42.354Z,1.00
2022-12-04T07:34:10.571Z,1.00
2022-12-04T07:36:39.900Z,3.30
2022-12-04T07:39:09.818Z,2.00
2022-12-04T07:41:38.033Z,1.80
2022-12-04T07:44:06.571Z,1.10
2022-12-04T07:46:34.852Z,1.10
2022-12-04T07:49:03.178Z,2.40
2022-12-04T07:51:31.536Z,1.10
2022-12-04T07:54:03.649Z,2.40
2022-12-04T07:56:34.721Z,3.00
2022-12-04T07:59:03.389Z,2.30
2022-12-04T08:01:32.048Z,1.20
2022-12-04T08:04:03.179Z,1.30
2022-12-04T08:06:34.587Z,1.30
2022-12-04T08:09:09.167Z,1.20
2022-12-04T08:11:39.650Z,2.40
2022-12-04T08:14:09.904Z,1.70
2022-12-04T08:16:38.171Z,1.30
2022-12-04T08:19:06.650Z,1.40
2022-12-04T08:21:35.378Z,2.70
2022-12-04T08:24:09.220Z,1.40
2022-12-04T08:26:43.836Z,3.10
2022-12-04T08:29:25.830Z,2.30
2022-12-04T08:32:20.103Z,1.50
2022-12-04T08:34:56.107Z,-0.20
2022-12-04T08:37:27.701Z,3.40
2022-12-04T08:40:12.080Z,1.50
2022-12-04T08:42:50.259Z,1.80
2022-12-04T08:45:52.678Z,3.30
2022-12-04T08:49:02.752Z,0.70
2022-12-04T08:52:07.956Z,2.80
2022-12-04T08:56:28.115Z,0.40
2022-12-04T08:59:16.829Z,1.30
2022-12-04T09:02:13.402Z,2.60
2022-12-04T09:05:16.719Z,2.00
2022-12-04T09:08:19.160Z,2.20
2022-12-04T09:10:55.808Z,3.90
2022-12-04T09:13:33.842Z,2.40
2022-12-04T09:16:19.073Z,2.70
2022-12-04T09:18:59.039Z,2.10
2022-12-04T09:21:30.384Z,1.90
2022-12-04T09:24:19.655Z,4.20
2022-12-04T09:27:14.277Z,2.20
2022-12-04T09:29:56.178Z,3.00
2022-12-04T09:33:03.805Z,2.60
2022-12-04T09:36:21.264Z,1.60
2022-12-04T09:39:04.224Z,2.20
2022-12-04T09:41:54.465Z,2.90
2022-12-04T09:44:29.197Z,1.60
2022-12-04T09:47:02.363Z,4.30
2022-12-04T09:49:38.869Z,2.90
2022-12-04T09:52:35.126Z,4.10
2022-12-04T09:55:11.085Z,3.90
2022-12-04T09:57:49.731Z,1.40
2022-12-04T10:00:32.838Z,3.90
2022-12-04T10:03:05.835Z,3.00
2022-12-04T10:05:56.522Z,4.70
2022-12-04T10:08:39.996Z,2.00
2022-12-04T10:11:20.975Z,3.60
2022-12-04T10:14:39.785Z,5.00
2022-12-04T10:17:54.926Z,3.40
2022-12-04T10:20:46.199Z,3.20
2022-12-04T10:23:24.576Z,3.00
2022-12-04T10:25:56.200Z,4.30
2022-12-04T10:28:33.407Z,3.40
2022-12-04T10:31:15.891Z,4.10
2022-12-04T10:34:01.363Z,2.50
2022-12-04T10:36:48.786Z,5.10
2022-12-04T10:39:31.346Z,4.50
2022-12-04T10:42:15.681Z,5.40
2022-12-04T10:44:54.468Z,6.30
2022-12-04T10:47:28.589Z,6.10
2022-12-04T10:50:01.411Z,5.50
2022-12-04T10:52:32.990Z,7.60
2022-12-04T10:55:02.887Z,6.80
2022-12-04T10:57:39.694Z,7.50
2022-12-04T11:00:36.097Z,6.10
2022-12-04T11:03:11.471Z,5.90
2022-12-04T11:05:49.579Z,5.90
2022-12-04T11:08:24.954Z,7.70
2022-12-04T11:11:01.963Z,7.00
2022-12-04T11:13:34.672Z,5.60
2022-12-04T11:16:03.118Z,6.00
2022-12-04T11:18:33.424Z,6.40
2022-12-04T11:21:04.344Z,6.20
2022-12-04T11:23:42.317Z,5.80
2022-12-04T11:26:11.836Z,6.40
2022-12-04T11:28:45.298Z,6.90
2022-12-04T11:31:19.749Z,5.50
2022-12-04T11:33:53.115Z,7.10
2022-12-04T11:36:25.333Z,5.70
2022-12-04T11:39:08.284Z,6.10
2022-12-04T11:41:36.615Z,6.60
2022-12-04T11:44:08.002Z,8.00
2022-12-04T11:46:36.533Z,8.00
2022-12-04T11:49:04.845Z,6.30
2022-12-04T11:51:47.025Z,7.10
2022-12-04T11:54:27.341Z,8.00
2022-12-04T11:57:04.747Z,8.80
2022-12-04T11:59:51.513Z,7.60
2022-12-04T12:02:41.179Z,9.10
2022-12-04T12:05:45.879Z,6.90
2022-12-04T12:08:26.007Z,6.80
2022-12-04T12:11:05.653Z,6.80
2022-12-04T12:13:44.514Z,7.00
2022-12-04T12:16:22.623Z,8.00
2022-12-04T12:19:10.752Z,8.70
2022-12-04T12:21:47.966Z,8.90
2022-12-04T12:24:27.010Z,7.90
2022-12-04T12:27:12.812Z,7.10
2022-12-04T12:29:56.956Z,7.90
2022-12-04T12:32:40.643Z,7.00
2022-12-04T12:35:21.051Z,9.20
2022-12-04T12:37:53.688Z,8.60
2022-12-04T12:40:31.851Z,7.20
2022-12-04T12:43:07.997Z,7.30
2022-12-04T12:45:44.453Z,7.80
2022-12-04T12:48:25.397Z,8.10
2022-12-04T12:51:22.254Z,7.30
2022-12-04T12:53:51.375Z,7.60
2022-12-04T12:56:24.211Z,8.00
2022-12-04T12:58:57.252Z,7.80
2022-12-04T13:01:34.160Z,8.50
2022-12-04T13:04:14.548Z,7.00
2022-12-04T13:06:45.795Z,7.10
2022-12-04T13:09:20.003Z,7.70
2022-12-04T13:11:51.845Z,7.00
2022-12-04T13:14:22.975Z,8.40
2022-12-04T13:16:55.204Z,8.00
2022-12-04T13:19:26.593Z,7.70
2022-12-04T13:22:03.045Z,6.70
2022-12-04T13:24:48.970Z,7.90
2022-12-04T13:27:29.709Z,6.40
2022-12-04T13:30:10.081Z,6.40
2022-12-04T13:33:03.128Z,7.10
2022-12-04T13:35:49.332Z,7.60
2022-12-04T13:38:25.764Z,7.10
2022-12-04T13:40:57.473Z,8.00
2022-12-04T13:43:47.647Z,7.50
2022-12-04T13:46:31.084Z,7.60
2022-12-04T13:49:10.039Z,6.00
2022-12-04T13:51:40.654Z,5.80
2022-12-04T13:54:30.728Z,6.50
2022-12-04T13:57:14.511Z,6.90
2022-12-04T13:59:43.688Z,6.70
2022-12-04T14:02:35.338Z,6.40
2022-12-04T14:05:06.463Z,7.90
2022-12-04T14:07:37.493Z,7.90
2022-12-04T14:10:08.322Z,7.10
2022-12-04T14:12:42.203Z,5.60
2022-12-04T14:15:25.677Z,6.70
2022-12-04T14:18:27.250Z,6.40
2022-12-04T14:21:11.869Z,6.30
2022-12-04T14:23:54.937Z,7.70
2022-12-04T14:29:49.345Z,7.60
2022-12-04T14:32:47.356Z,7.50
2022-12-04T14:35:20.817Z,4.90
2022-12-04T14:37:56.352Z,6.80
2022-12-04T14:40:31.326Z,7.30
2022-12-04T14:43:01.940Z,7.00
2022-12-04T14:45:47.879Z,5.30
2022-12-04T14:48:29.767Z,5.10
2022-12-04T14:51:09.114Z,6.50
2022-12-04T14:53:43.054Z,6.30
2022-12-04T14:56:26.253Z,5.10
2022-12-04T14:58:54.557Z,5.90
2022-12-04T15:01:28.980Z,6.00
2022-12-04T15:04:00.590Z,6.40
2022-12-04T15:06:32.996Z,5.10
2022-12-04T15:09:16.986Z,6.20
2022-12-04T15:12:12.983Z,5.00
2022-12-04T15:14:42.954Z,6.10
2022-12-04T15:17:12.925Z,6.40
2022-12-04T15:19:41.645Z,4.90
2022-12-04T15:22:18.640Z,6.30
2022-12-04T15:24:47.094Z,6.50
2022-12-04T15:27:17.595Z,6.00
2022-12-04T15:29:48.544Z,6.10
2022-12-04T15:32:21.564Z,6.10
2022-12-04T15:34:53.052Z,6.80
2022-12-04T15:37:26.887Z,4.80
2022-12-04T15:39:56.308Z,5.70
2022-12-04T15:42:28.701Z,6.50
2022-12-04T15:45:01.314Z,6.30
2022-12-04T15:47:31.200Z,5.20
2022-12-04T15:50:10.392Z,6.90
2022-12-04T15:52:49.283Z,6.10
2022-12-04T15:55:19.503Z,6.30
2022-12-04T15:57:55.100Z,6.90
2022-12-04T16:00:27.241Z,5.60
2022-12-04T16:02:57.378Z,4.40
2022-12-04T16:05:32.910Z,5.20
2022-12-04T16:08:05.102Z,4.50
2022-12-04T16:10:35.107Z,4.00
2022-12-04T16:13:05.324Z,5.50
2022-12-04T16:15:40.338Z,5.00
2022-12-04T16:18:13.718Z,4.60
2022-12-04T16:20:42.751Z,5.90
2022-12-04T16:23:12.449Z,4.50
2022-12-04T16:25:40.664Z,5.70
2022-12-04T16:28:09.285Z,6.50
2022-12-04T16:30:37.756Z,6.30
2022-12-04T16:33:06.007Z,5.80
2022-12-04T16:35:34.256Z,6.70
2022-12-04T16:38:02.458Z,4.30
2022-12-04T16:40:32.218Z,6.70
2022-12-04T16:43:00.447Z,5.40
2022-12-04T16:45:32.677Z,5.50
2022-12-04T16:48:01.053Z,4.70
2022-12-04T16:50:29.767Z,6.00
2022-12-04T16:52:59.428Z,5.80
2022-12-04T16:55:32.854Z,5.70
2022-12-04T16:58:02.786Z,5.70
2022-12-04T17:00:31.296Z,5.40
2022-12-04T17:02:59.635Z,4.10
2022-12-04T17:05:29.986Z,4.10
2022-12-04T17:07:58.222Z,6.20
2022-12-04T17:10:26.806Z,6.00
2022-12-04T17:12:56.500Z,5.10
2022-12-04T17:15:24.968Z,4.30
2022-12-04T17:17:53.577Z,3.80
2022-12-04T17:20:22.278Z,5.80
2022-12-04T17:22:50.515Z,5.00
2022-12-04T17:25:19.399Z,4.90
2022-12-04T17:27:47.874Z,3.80
2022-12-04T17:30:18.040Z,5.20
2022-12-04T17:32:46.642Z,3.90
2022-12-04T17:35:14.991Z,6.00
2022-12-04T17:37:43.260Z,5.20
2022-12-04T17:40:14.563Z,4.10
2022-12-04T17:42:43.137Z,3.90
2022-12-04T17:45:14.448Z,4.00
2022-12-04T17:47:44.341Z,3.90
2022-12-04T17:50:12.673Z,5.90
2022-12-04T17:52:40.917Z,3.40
2022-12-04T17:55:09.856Z,5.50
2022-12-04T17:57:38.013Z,4.00
2022-12-04T18:00:07.675Z,3.90
2022-12-04T18:02:36.026Z,4.00
2022-12-04T18:05:06.202Z,5.80
2022-12-04T18:07:34.534Z,3.90
2022-12-04T18:10:02.860Z,4.00
2022-12-04T18:12:31.129Z,4.10
2022-12-04T18:14:59.476Z,5.10
2022-12-04T18:17:27.733Z,5.90
2022-12-04T18:19:59.809Z,4.00
2022-12-04T18:22:32.403Z,4.00
2022-12-04T18:25:00.670Z,3.90
2022-12-04T18:27:28.864Z,4.70
2022-12-04T18:29:57.493Z,5.10
2022-12-04T18:32:25.920Z,3.90
2022-12-04T18:34:54.811Z,5.70
2022-12-04T18:37:22.947Z,5.90
2022-12-04T18:39:52.707Z,4.00
2022-12-04T18:42:20.898Z,4.70
2022-12-04T18:44:49.108Z,5.10
2022-12-04T18:47:17.305Z,4.00
2022-12-04T18:49:47.180Z,6.10
2022-12-04T18:52:15.279Z,5.30
2022-12-04T18:54:43.650Z,5.00
2022-12-04T18:57:13.323Z,6.00
2022-12-04T18:59:41.669Z,5.80
2022-12-04T19:02:11.439Z,3.90
2022-12-04T19:04:39.675Z,6.10
2022-12-04T19:07:07.864Z,5.00
2022-12-04T19:10:09.430Z,3.90
2022-12-04T19:12:25.596Z,3.90
2022-12-04T19:14:53.772Z,5.70
2022-12-04T19:17:22.621Z,3.90
2022-12-04T19:19:50.995Z,5.00
2022-12-04T19:22:19.327Z,5.50
2022-12-04T19:24:48.420Z,5.10
2022-12-04T19:27:16.704Z,6.20
2022-12-04T19:29:46.321Z,4.40
2022-12-04T19:32:14.882Z,3.80
2022-12-04T19:34:43.936Z,3.80
2022-12-04T19:37:12.945Z,5.10
2022-12-04T19:39:41.172Z,5.00
2022-12-04T19:42:09.679Z,3.90
2022-12-04T19:44:53.531Z,4.90
2022-12-04T19:47:23.223Z,5.80
2022-12-04T19:49:51.408Z,5.40
2022-12-04T19:52:19.750Z,3.80
2022-12-04T19:54:47.997Z,5.70
2022-12-04T19:57:16.464Z,5.00
2022-12-04T19:59:46.767Z,5.80
2022-12-04T20:02:15.860Z,5.30
2022-12-04T20:04:45.904Z,5.10
2022-12-04T20:07:14.156Z,3.70
2022-12-04T20:09:46.069Z,3.80
2022-12-04T20:12:17.217Z,3.70
2022-12-04T20:14:45.535Z,5.60
2022-12-04T20:17:13.932Z,5.20
2022-12-04T20:19:42.332Z,3.80
2022-12-04T20:22:12.204Z,3.60
2022-12-04T20:24:40.671Z,5.30
2022-12-04T20:27:08.891Z,3.50
2022-12-04T20:29:37.286Z,4.20
2022-12-04T20:32:05.616Z,4.60
2022-12-04T20:34:37.564Z,3.40
2022-12-04T20:37:08.431Z,4.60
2022-12-04T20:39:39.252Z,3.30
2022-12-04T20:42:07.630Z,3.40
2022-12-04T20:44:35.924Z,4.80
2022-12-04T20:47:04.250Z,4.60
2022-12-04T20:49:32.515Z,3.20
2022-12-04T20:52:00.754Z,3.80
2022-12-04T20:54:29.076Z,4.50
2022-12-04T20:56:58.841Z,3.80
2022-12-04T20:59:27.310Z,5.20
2022-12-04T21:01:56.081Z,4.00
2022-12-04T21:04:24.380Z,5.10
2022-12-04T21:06:52.716Z,3.10
2022-12-04T21:09:24.587Z,5.00
2022-12-04T21:11:55.304Z,3.10
2022-12-04T21:14:43.906Z,4.00
2022-12-04T21:17:18.562Z,3.00
2022-12-04T21:19:48.012Z,4.80
2022-12-04T21:22:17.546Z,3.30
2022-12-04T21:24:46.038Z,4.90
2022-12-04T21:27:19.108Z,2.90
2022-12-04T21:29:50.871Z,4.10
2022-12-04T21:32:20.674Z,3.60
2022-12-04T21:34:49.207Z,5.00
2022-12-04T21:37:17.490Z,4.70
2022-12-04T21:39:46.131Z,3.20
2022-12-04T21:42:32.924Z,4.20
2022-12-04T21:45:04.741Z,3.00
2022-12-04T21:47:33.062Z,4.90
2022-12-04T21:50:01.545Z,5.10
2022-12-04T21:52:29.937Z,4.90
2022-12-04T21:54:58.414Z,4.30
2022-12-04T21:57:26.760Z,5.00
2022-12-04T21:59:55.431Z,5.00
2022-12-04T22:02:26.298Z,4.40
2022-12-04T22:04:54.602Z,4.00
2022-12-04T22:07:22.890Z,3.90
2022-12-04T22:09:51.156Z,5.00
2022-12-04T22:12:48.090Z,4.10
2022-12-04T22:15:08.837Z,3.50
2022-12-04T22:17:38.461Z,2.70
2022-12-04T22:20:08.248Z,4.10
2022-12-04T22:22:36.701Z,2.80
2022-12-04T22:25:05.793Z,2.80
2022-12-04T22:27:34.189Z,2.80
2022-12-04T22:30:02.759Z,4.10
2022-12-04T22:32:31.365Z,3.70
2022-12-04T22:35:01.551Z,3.60
2022-12-04T22:37:30.078Z,2.70
2022-12-04T22:39:58.845Z,4.70
2022-12-04T22:42:27.881Z,4.80
2022-12-04T22:44:59.094Z,4.80
2022-12-04T22:47:27.178Z,2.70
2022-12-04T22:49:55.702Z,2.70
2022-12-04T22:52:25.747Z,2.70
2022-12-04T22:54:54.013Z,2.80
2022-12-04T22:57:22.405Z,2.70
2022-12-04T22:59:50.643Z,2.70
2022-12-04T23:02:18.883Z,2.70
2022-12-04T23:04:47.115Z,2.90
2022-12-04T23:07:15.360Z,2.80
2022-12-04T23:09:45.104Z,2.70
2022-12-04T23:12:13.208Z,2.60
2022-12-04T23:14:41.374Z,2.70
2022-12-04T23:17:09.593Z,2.70
2022-12-04T23:19:37.984Z,2.70
2022-12-04T23:22:06.172Z,2.60
2022-12-04T23:24:38.078Z,2.70
2022-12-04T23:27:08.303Z,3.30
2022-12-04T23:29:52.752Z,2.60
2022-12-04T23:32:22.260Z,4.20
2022-12-04T23:34:53.169Z,3.30
2022-12-04T23:37:21.478Z,4.90
2022-12-04T23:39:49.996Z,4.60
2022-12-04T23:42:19.907Z,4.20
2022-12-04T23:44:48.532Z,2.80
2022-12-04T23:47:16.967Z,3.70
2022-12-04T23:52:14.154Z,2.60
2022-12-04T23:54:42.656Z,3.20
2022-12-04T23:57:11.527Z,3.30
2022-12-04T23:59:41.625Z,3.70
